Terminal Aerodrome Forecast
Issued by NWS Topeka, KS

Home | Current Version | Previous Version | Graphics & Text | Print | Product List | Glossary On
Versions: 1 2 3 4 5 6 7 8 9 10 11 12 13 14
855
FTUS43 KTOP 260520
TAFTOP
TAF
KTOP 260520Z 2606/2706 33014KT P6SM VCSH OVC017
     FM261100 34013KT P6SM OVC015
     FM261600 33015G23KT P6SM OVC025
     FM261900 34015G23KT P6SM OVC035
     FM270000 33010KT P6SM SCT040=

USA.gov is the U.S. government's official web portal to all federal, state and local government web resources and services.